Time;durP1;ratioP1;P1;durP2;ratioP2;P2;SDS_P1;SDS_P2;PMS_P1;PMS_P2;Temp;Humidity;BMP_temperature;BMP_pressure;BME280_temperature;BME280_humidity;BME280_pressure;Samples;Min_cycle;Max_cycle;Signal;HPM_P1;HPM_P2
2022/04/25 00:02:16;;;;;;;1.63;1.08;;;;;;;10.82;79.20;100288.13;5052184;28;20041;-68
2022/04/25 00:04:41;;;;;;;0.68;0.68;;;;;;;10.57;80.17;100303.19;5059224;28;20063;-68
2022/04/25 00:07:07;;;;;;;0.80;0.80;;;;;;;10.60;79.98;100301.69;5050583;28;20037;-67
2022/04/25 00:09:32;;;;;;;0.70;0.60;;;;;;;10.31;80.97;100299.72;5050285;28;20049;-67
2022/04/25 00:11:58;;;;;;;2.95;0.90;;;;;;;10.29;81.90;100292.00;5054498;28;20040;-67
2022/04/25 00:14:23;;;;;;;0.52;0.52;;;;;;;10.57;80.13;100300.50;5036021;28;20524;-67
2022/04/25 00:16:54;;;;;;;1.45;0.82;;;;;;;10.37;81.17;100285.59;5019018;28;20111;-67
2022/04/25 00:19:20;;;;;;;1.02;0.90;;;;;;;10.35;81.07;100292.47;5048862;28;20068;-67
2022/04/25 00:21:45;;;;;;;0.47;0.47;;;;;;;10.33;81.27;100294.75;5053887;28;20466;-67
2022/04/25 00:24:11;;;;;;;1.42;0.93;;;;;;;10.43;80.30;100294.88;5052916;28;20033;-68
2022/04/25 00:26:36;;;;;;;0.75;0.75;;;;;;;10.36;81.98;100294.00;5031624;28;20029;-67
2022/04/25 00:29:01;;;;;;;0.73;0.73;;;;;;;10.33;81.05;100300.91;5038088;28;20531;-67
2022/04/25 00:31:27;;;;;;;1.08;0.93;;;;;;;10.32;81.94;100296.66;5053923;28;20067;-67
2022/04/25 00:33:52;;;;;;;0.50;0.50;;;;;;;10.26;82.09;100294.66;5053756;28;20049;-67
2022/04/25 00:36:17;;;;;;;0.93;0.60;;;;;;;10.35;81.89;100303.25;5053884;28;20044;-67
2022/04/25 00:38:43;;;;;;;1.35;0.88;;;;;;;10.48;81.23;100301.88;5053552;28;20143;-67
2022/04/25 00:41:09;;;;;;;3.38;1.42;;;;;;;10.48;80.95;100308.06;5015225;28;20405;-67
2022/04/25 00:43:34;;;;;;;3.58;0.85;;;;;;;10.59;80.84;100311.69;5034204;28;20041;-67
2022/04/25 00:46:00;;;;;;;1.42;1.02;;;;;;;10.50;81.95;100300.41;5036154;28;20401;-67
2022/04/25 00:48:26;;;;;;;0.90;0.80;;;;;;;10.49;81.05;100306.91;5052457;28;20036;-67
2022/04/25 00:50:51;;;;;;;16.85;1.27;;;;;;;10.57;80.74;100305.88;5053261;28;20047;-68
2022/04/25 00:53:16;;;;;;;1.98;1.10;;;;;;;10.43;81.05;100308.34;5053450;28;20028;-67
2022/04/25 00:55:42;;;;;;;0.55;0.55;;;;;;;10.39;81.96;100302.16;5054026;28;20032;-67
2022/04/25 00:58:07;;;;;;;1.00;0.70;;;;;;;10.45;81.94;100297.25;5052752;28;20064;-68
2022/04/25 01:00:36;;;;;;;2.95;0.95;;;;;;;10.65;80.67;100307.53;5053187;28;20031;-67
2022/04/25 01:03:02;;;;;;;0.60;0.60;;;;;;;10.33;81.77;100308.97;5045016;28;20668;-67
2022/04/25 01:05:28;;;;;;;1.52;0.57;;;;;;;10.39;80.92;100312.16;5053431;28;20145;-67
2022/04/25 01:07:53;;;;;;;3.72;0.75;;;;;;;10.40;81.68;100311.78;5049653;28;20478;-67
2022/04/25 01:10:19;;;;;;;0.60;0.50;;;;;;;10.49;80.18;100306.91;5053403;28;20033;-67
2022/04/25 01:12:44;;;;;;;0.80;0.80;;;;;;;10.23;81.65;100311.50;5031262;28;20029;-68
2022/04/25 01:15:11;;;;;;;1.13;0.70;;;;;;;10.24;82.17;100313.81;5045080;28;20168;-67
2022/04/25 01:17:37;;;;;;;0.98;0.68;;;;;;;10.32;81.87;100314.72;5047686;28;20021;-68
2022/04/25 01:20:04;;;;;;;1.00;0.75;;;;;;;10.22;81.69;100310.72;5052840;28;20044;-67
2022/04/25 01:22:41;;;;;;;0.88;0.65;;;;;;;10.32;80.78;100307.41;5052172;28;20575;-68
2022/04/25 01:27:52;;;;;;;1.05;0.68;;;;;;;10.30;81.18;100311.63;5051292;28;20032;-67
2022/04/25 01:30:18;;;;;;;0.50;0.50;;;;;;;10.26;81.05;100311.56;5052763;28;20048;-67
2022/04/25 01:32:43;;;;;;;0.77;0.70;;;;;;;10.24;81.73;100311.13;5053573;28;20474;-67
2022/04/25 01:35:09;;;;;;;0.88;0.57;;;;;;;10.11;81.48;100309.00;5053236;28;20086;-67
2022/04/25 01:37:34;;;;;;;1.05;0.75;;;;;;;10.16;82.14;100312.19;5017106;28;20021;-67
2022/04/25 01:40:00;;;;;;;1.23;0.82;;;;;;;10.25;81.58;100304.63;5032826;28;20033;-67
2022/04/25 01:42:25;;;;;;;1.17;0.77;;;;;;;10.30;80.54;100315.06;5035910;28;20040;-67
2022/04/25 01:44:51;;;;;;;0.38;0.38;;;;;;;10.19;81.50;100321.41;5051734;28;20738;-68
2022/04/25 01:47:18;;;;;;;0.45;0.30;;;;;;;10.16;81.56;100316.78;5051768;28;20465;-67
2022/04/25 01:49:43;;;;;;;1.27;0.68;;;;;;;10.25;80.76;100320.00;5034651;28;20048;-67
2022/04/25 01:52:27;;;;;;;1.17;0.65;;;;;;;10.17;82.14;100329.84;5036141;28;20049;-67
2022/04/25 01:54:53;;;;;;;0.47;0.47;;;;;;;10.24;81.92;100319.19;5052089;28;20037;-68
2022/04/25 01:57:18;;;;;;;1.13;0.95;;;;;;;10.12;82.09;100326.69;5052851;28;20037;-68
2022/04/25 01:59:45;;;;;;;0.40;0.40;;;;;;;10.22;81.63;100326.09;5053479;28;20025;-67
2022/04/25 02:02:11;;;;;;;1.15;0.68;;;;;;;10.17;81.64;100319.09;5035138;28;20090;-67
2022/04/25 02:04:38;;;;;;;1.00;0.85;;;;;;;10.27;80.23;100320.41;5021152;28;20033;-67
2022/04/25 02:07:05;;;;;;;0.47;0.38;;;;;;;10.25;80.68;100331.53;5052974;28;20099;-67
2022/04/25 02:09:30;;;;;;;0.50;0.50;;;;;;;10.22;80.88;100320.72;5053072;28;20124;-67
2022/04/25 02:11:56;;;;;;;2.15;0.60;;;;;;;10.17;81.40;100337.94;5052210;28;20116;-68
2022/04/25 02:14:21;;;;;;;1.48;0.65;;;;;;;10.28;80.42;100341.56;5052401;28;20128;-68
2022/04/25 02:16:47;;;;;;;0.57;0.45;;;;;;;10.18;79.94;100334.09;5039681;28;20037;-67
2022/04/25 02:19:12;;;;;;;1.10;0.75;;;;;;;10.29;80.22;100347.75;5042250;28;20485;-67
2022/04/25 02:21:38;;;;;;;0.60;0.60;;;;;;;10.09;81.20;100340.81;5051454;28;20033;-68
2022/04/25 02:24:04;;;;;;;1.55;0.68;;;;;;;10.07;81.83;100351.16;5030254;28;20052;-67
2022/04/25 02:26:29;;;;;;;1.80;0.52;;;;;;;10.16;81.69;100343.69;5034770;28;20503;-67
2022/04/25 02:28:55;;;;;;;2.17;0.73;;;;;;;10.11;81.53;100342.06;5032455;28;20049;-68
2022/04/25 02:31:20;;;;;;;2.20;0.68;;;;;;;10.23;80.19;100343.78;5032750;28;20091;-67
2022/04/25 02:33:46;;;;;;;0.60;0.60;;;;;;;10.23;80.10;100339.19;5033025;28;20058;-67
2022/04/25 02:36:12;;;;;;;0.30;0.30;;;;;;;9.96;81.82;100359.84;5049009;28;20036;-68
2022/04/25 02:38:39;;;;;;;0.40;0.30;;;;;;;9.85;82.18;100350.03;5050547;28;20036;-68
2022/04/25 02:41:05;;;;;;;5.05;0.55;;;;;;;9.91;81.93;100349.38;5033239;28;20048;-67
2022/04/25 02:43:35;;;;;;;1.67;1.20;;;;;;;10.13;80.53;100347.06;5050873;28;20102;-67
2022/04/25 02:46:02;;;;;;;0.98;0.80;;;;;;;9.98;81.03;100343.34;5033978;28;20497;-68
2022/04/25 02:48:29;;;;;;;1.00;0.50;;;;;;;10.11;80.29;100362.78;5050373;28;20033;-68
2022/04/25 02:50:54;;;;;;;0.85;0.68;;;;;;;9.98;81.14;100354.88;5045202;28;20127;-67
2022/04/25 02:53:20;;;;;;;0.77;0.45;;;;;;;9.89;81.58;100342.81;5040944;28;20052;-67
2022/04/25 02:55:45;;;;;;;0.70;0.70;;;;;;;9.92;80.81;100350.16;5049396;28;20568;-67
2022/04/25 02:58:10;;;;;;;3.10;0.85;;;;;;;10.08;80.04;100342.75;5050139;28;20036;-68
2022/04/25 03:00:36;;;;;;;1.33;0.35;;;;;;;10.17;79.60;100342.53;5050286;28;20040;-67
2022/04/25 03:03:01;;;;;;;1.15;0.57;;;;;;;9.90;80.83;100344.34;5043362;28;20037;-68
2022/04/25 03:05:27;;;;;;;0.57;0.50;;;;;;;9.83;81.74;100346.91;5050433;28;20040;-68
2022/04/25 03:07:52;;;;;;;0.75;0.65;;;;;;;9.74;82.09;100341.75;5050761;28;20783;-68
2022/04/25 03:10:18;;;;;;;0.95;0.43;;;;;;;9.62;82.88;100341.16;5050557;28;20041;-68
2022/04/25 03:12:43;;;;;;;0.35;0.35;;;;;;;9.60;83.15;100344.19;5049346;28;20032;-68
2022/04/25 03:15:09;;;;;;;1.17;0.60;;;;;;;9.83;81.86;100347.69;5033938;28;20044;-68
2022/04/25 03:17:34;;;;;;;0.63;0.63;;;;;;;9.91;81.39;100343.22;5028461;28;20073;-68
2022/04/25 03:20:00;;;;;;;1.98;0.90;;;;;;;9.81;81.75;100339.19;5050947;28;20597;-68
2022/04/25 03:22:26;;;;;;;0.98;0.98;;;;;;;10.07;80.05;100345.78;5049739;28;20033;-67
2022/04/25 03:24:51;;;;;;;1.15;0.68;;;;;;;9.97;80.47;100344.47;5051134;28;20028;-67
2022/04/25 03:27:17;;;;;;;0.57;0.45;;;;;;;9.58;81.51;100343.00;5053761;28;20378;-67
2022/04/25 03:29:42;;;;;;;1.00;0.77;;;;;;;9.48;82.67;100332.81;5050922;28;20060;-68
2022/04/25 03:32:07;;;;;;;0.60;0.60;;;;;;;9.70;81.90;100342.81;5050438;28;20881;-68
2022/04/25 03:34:36;;;;;;;1.00;0.60;;;;;;;9.73;81.37;100336.75;5049865;28;20021;-68
2022/04/25 03:37:02;;;;;;;1.08;0.60;;;;;;;9.86;81.01;100338.13;5049252;28;20517;-68
2022/04/25 03:39:29;;;;;;;1.27;0.43;;;;;;;9.80;81.05;100347.63;5046175;28;20163;-67
2022/04/25 03:41:55;;;;;;;0.47;0.47;;;;;;;9.82;80.87;100345.34;5050304;28;20398;-67
2022/04/25 03:44:20;;;;;;;0.95;0.85;;;;;;;9.68;81.51;100340.50;5043224;28;20108;-68
2022/04/25 03:46:46;;;;;;;0.57;0.55;;;;;;;9.63;81.71;100338.09;5043887;28;20205;-68
2022/04/25 03:49:13;;;;;;;0.40;0.40;;;;;;;9.66;81.39;100341.97;5049602;28;20120;-68
2022/04/25 03:51:39;;;;;;;1.85;0.57;;;;;;;9.41;82.65;100343.41;5050243;28;20545;-68
2022/04/25 03:54:04;;;;;;;0.57;0.57;;;;;;;9.41;82.51;100346.88;5042995;28;20166;-68
2022/04/25 03:59:14;;;;;;;1.10;1.00;;;;;;;9.48;81.00;100344.34;5049572;28;20025;-68
2022/04/25 04:01:39;;;;;;;1.00;0.77;;;;;;;9.40;82.12;100345.34;5032857;28;20032;-67
2022/04/25 04:04:05;;;;;;;0.80;0.50;;;;;;;9.42;81.94;100342.28;5047397;28;20056;-67
2022/04/25 04:06:32;;;;;;;5.57;0.70;;;;;;;9.40;82.03;100345.34;5049143;28;20041;-67
2022/04/25 04:08:58;;;;;;;0.35;0.28;;;;;;;9.41;81.46;100346.09;5039786;28;20136;-67
2022/04/25 04:11:45;;;;;;;0.50;0.45;;;;;;;9.29;82.80;100362.38;5037557;28;20132;-66
2022/04/25 04:14:09;;;;;;;0.65;0.65;;;;;;;9.27;82.76;100364.63;5037554;28;20119;-67
2022/04/25 04:16:34;;;;;;;0.30;0.30;;;;;;;9.35;82.47;100364.41;5042353;28;20570;-67
2022/04/25 04:18:59;;;;;;;1.80;1.17;;;;;;;9.55;81.65;100362.50;5052305;28;20036;-67
2022/04/25 04:21:25;;;;;;;0.80;0.68;;;;;;;9.66;80.81;100368.84;5049726;28;20072;-67
2022/04/25 04:23:50;;;;;;;0.28;0.28;;;;;;;9.50;81.74;100360.91;5028426;28;20444;-67
2022/04/25 04:26:16;;;;;;;1.75;0.80;;;;;;;9.38;82.20;100355.66;5029681;28;20057;-67
2022/04/25 04:28:41;;;;;;;1.10;0.50;;;;;;;9.17;82.83;100363.28;5039219;28;20017;-67
2022/04/25 04:31:06;;;;;;;2.47;0.70;;;;;;;9.12;83.76;100368.16;5050418;28;20087;-67
2022/04/25 04:33:32;;;;;;;2.13;1.05;;;;;;;8.93;84.38;100371.56;5049570;28;20071;-67
2022/04/25 04:38:41;;;;;;;0.73;0.68;;;;;;;8.87;84.33;100371.06;5031335;28;20048;-68
2022/04/25 04:41:06;;;;;;;0.70;0.70;;;;;;;9.14;83.02;100379.34;5049552;28;20063;-67
2022/04/25 04:43:32;;;;;;;3.30;0.77;;;;;;;8.95;83.50;100377.38;5049302;28;20028;-67
2022/04/25 04:45:58;;;;;;;0.50;0.45;;;;;;;9.20;82.60;100373.31;5044404;28;20022;-67
2022/04/25 04:48:24;;;;;;;5.10;0.80;;;;;;;9.26;81.93;100387.25;5046350;28;20033;-67
2022/04/25 04:50:55;;;;;;;1.08;0.70;;;;;;;9.01;82.62;100390.19;5039318;28;20045;-67
2022/04/25 04:53:21;;;;;;;0.40;0.40;;;;;;;8.95;83.63;100388.13;5046718;28;20508;-67
2022/04/25 04:55:46;;;;;;;0.88;0.28;;;;;;;8.97;82.97;100392.03;5053139;28;20371;-67
2022/04/25 04:58:12;;;;;;;0.88;0.70;;;;;;;9.14;82.69;100392.75;5051118;28;20033;-67
2022/04/25 05:00:37;;;;;;;0.45;0.45;;;;;;;9.06;82.54;100391.81;5027666;28;20029;-67
2022/04/25 05:03:03;;;;;;;2.33;0.75;;;;;;;9.02;82.72;100402.47;5051263;28;20444;-68
2022/04/25 05:05:29;;;;;;;0.55;0.52;;;;;;;9.13;82.37;100401.94;5038431;28;20540;-69
2022/04/25 05:07:54;;;;;;;1.17;0.80;;;;;;;9.23;81.37;100404.09;5029891;28;20029;-69
2022/04/25 05:10:20;;;;;;;0.30;0.10;;;;;;;9.21;81.33;100395.59;5032934;28;20025;-69
2022/04/25 05:12:50;;;;;;;0.57;0.57;;;;;;;9.20;82.06;100405.56;5049194;28;20041;-67
2022/04/25 05:15:16;;;;;;;0.50;0.32;;;;;;;9.08;82.27;100409.13;5038013;28;20033;-67
2022/04/25 05:17:43;;;;;;;0.40;0.38;;;;;;;9.26;82.20;100403.38;5046392;28;20052;-67
2022/04/25 05:20:10;;;;;;;0.50;0.50;;;;;;;9.33;81.52;100398.91;5042970;28;20397;-67
2022/04/25 05:22:47;;;;;;;0.43;0.43;;;;;;;9.76;79.02;100405.94;5040190;28;20040;-68
2022/04/25 05:25:21;;;;;;;1.45;0.50;;;;;;;9.59;79.63;100409.84;5014489;28;20056;-67
2022/04/25 05:27:48;;;;;;;0.30;0.30;;;;;;;9.59;80.49;100415.22;5037466;28;20561;-67
2022/04/25 05:30:16;;;;;;;0.68;0.40;;;;;;;9.69;80.51;100414.66;5041517;28;20417;-67
2022/04/25 05:32:42;;;;;;;0.45;0.38;;;;;;;9.95;79.30;100424.72;5033599;28;20052;-67
2022/04/25 05:35:08;;;;;;;3.78;0.88;;;;;;;10.06;78.56;100427.63;5037496;28;20485;-67
2022/04/25 05:37:34;;;;;;;0.65;0.63;;;;;;;10.15;77.34;100429.00;5050544;28;20025;-67
2022/04/25 05:39:59;;;;;;;0.38;0.38;;;;;;;10.23;76.99;100432.59;5052316;28;20504;-67
2022/04/25 05:42:24;;;;;;;1.48;0.85;;;;;;;10.26;76.12;100427.25;5033890;28;20018;-68
2022/04/25 05:44:50;;;;;;;4.47;0.52;;;;;;;10.28;76.67;100438.44;5036768;28;20497;-68
2022/04/25 05:47:15;;;;;;;0.77;0.47;;;;;;;10.59;73.65;100432.84;5038466;28;20052;-68
2022/04/25 05:52:25;;;;;;;0.52;0.35;;;;;;;10.81;74.19;100442.81;5034031;28;20025;-68
2022/04/25 05:54:50;;;;;;;0.30;0.30;;;;;;;11.10;71.33;100432.47;5042023;28;20416;-68
2022/04/25 05:57:15;;;;;;;0.35;0.35;;;;;;;11.16;72.62;100449.88;5051536;28;20040;-68
2022/04/25 05:59:41;;;;;;;0.82;0.73;;;;;;;11.59;69.71;100446.63;5052088;28;20040;-68
2022/04/25 06:02:07;;;;;;;0.60;0.52;;;;;;;11.78;68.28;100438.41;5048618;28;20032;-68
2022/04/25 06:04:32;;;;;;;0.63;0.50;;;;;;;11.91;68.50;100452.41;5031129;28;20397;-68
2022/04/25 06:06:59;;;;;;;0.47;0.30;;;;;;;12.08;67.75;100463.41;5035364;28;20038;-69
2022/04/25 06:09:26;;;;;;;0.20;0.20;;;;;;;12.08;66.66;100466.13;5031161;28;20069;-69
2022/04/25 06:11:52;;;;;;;0.63;0.63;;;;;;;12.22;67.58;100455.47;5036430;28;20029;-69
2022/04/25 06:14:18;;;;;;;0.30;0.30;;;;;;;12.52;64.79;100461.56;5043331;28;20163;-69
2022/04/25 06:16:44;;;;;;;0.70;0.43;;;;;;;12.67;64.43;100468.66;5047754;28;20552;-69
2022/04/25 06:19:10;;;;;;;0.60;0.57;;;;;;;12.87;64.30;100461.09;5050558;28;20025;-69
2022/04/25 06:21:35;;;;;;;0.30;0.30;;;;;;;12.97;61.80;100468.50;5033391;28;20489;-69
2022/04/25 06:24:01;;;;;;;0.40;0.40;;;;;;;13.09;62.56;100470.16;5039344;28;20032;-69
2022/04/25 06:26:28;;;;;;;0.40;0.40;;;;;;;13.09;61.84;100465.53;5034074;28;20044;-69
2022/04/25 06:28:53;;;;;;;0.30;0.30;;;;;;;13.10;61.71;100471.72;5032838;28;20053;-69
2022/04/25 06:31:22;;;;;;;0.75;0.55;;;;;;;13.28;60.79;100464.47;5038698;28;20065;-69
2022/04/25 06:33:48;;;;;;;0.47;0.47;;;;;;;13.21;60.57;100469.84;5036675;28;20111;-70
2022/04/25 06:36:13;;;;;;;7.85;1.00;;;;;;;13.12;61.01;100478.31;5041585;28;20075;-69
2022/04/25 06:38:39;;;;;;;0.20;0.20;;;;;;;13.04;61.46;100478.63;5046176;28;20033;-69
2022/04/25 06:41:04;;;;;;;0.30;0.30;;;;;;;13.13;60.95;100479.06;5039432;28;20104;-69
2022/04/25 06:43:31;;;;;;;0.25;0.25;;;;;;;13.04;60.69;100467.81;5040923;28;20037;-69
2022/04/25 06:45:58;;;;;;;0.50;0.50;;;;;;;12.89;61.34;100480.41;5030893;28;20056;-70
2022/04/25 06:48:24;;;;;;;0.20;0.20;;;;;;;12.73;61.28;100477.19;5051453;28;20451;-69
2022/04/25 06:50:50;;;;;;;0.20;0.20;;;;;;;12.71;61.63;100479.50;5045231;28;20033;-70
2022/04/25 06:53:15;;;;;;;0.60;0.45;;;;;;;12.68;63.45;100478.31;5048936;28;20037;-70
2022/04/25 06:55:41;;;;;;;1.05;0.40;;;;;;;12.78;62.41;100478.75;5043881;28;20035;-70
2022/04/25 06:58:06;;;;;;;0.50;0.28;;;;;;;12.91;62.31;100482.75;5029837;28;20026;-70
2022/04/25 07:00:32;;;;;;;0.55;0.43;;;;;;;13.08;62.10;100484.84;5040963;28;20048;-70
2022/04/25 07:02:59;;;;;;;1.30;0.65;;;;;;;13.18;61.29;100484.91;5018467;28;20040;-69
2022/04/25 07:05:24;;;;;;;2.25;0.65;;;;;;;13.32;59.46;100487.69;5039935;28;20394;-69
2022/04/25 07:07:50;;;;;;;1.17;0.55;;;;;;;13.26;61.02;100477.59;5033157;28;20026;-69
2022/04/25 07:10:16;;;;;;;0.55;0.38;;;;;;;13.35;59.07;100475.38;5036976;28;20494;-69
2022/04/25 07:12:42;;;;;;;0.63;0.57;;;;;;;13.39;59.61;100476.16;5039829;28;20045;-68
2022/04/25 07:15:08;;;;;;;0.50;0.40;;;;;;;13.55;59.33;100482.03;5050472;28;20025;-69
2022/04/25 07:17:34;;;;;;;0.22;0.20;;;;;;;13.75;63.13;100487.94;5015337;28;20116;-70
2022/04/25 07:20:00;;;;;;;0.40;0.40;;;;;;;14.19;63.62;100493.91;5044990;28;20124;-69
2022/04/25 07:28:57;;;;;;;0.17;0.17;;;;;;;14.51;56.21;100500.22;5039315;28;20082;-69
2022/04/25 07:30:48;;;;;;;0.50;0.40;;;;;;;14.38;56.45;100502.50;5033132;28;20136;-70
2022/04/25 07:33:13;;;;;;;0.50;0.40;;;;;;;14.56;56.10;100504.47;5040479;28;20112;-70
2022/04/25 07:35:39;;;;;;;0.40;0.40;;;;;;;14.38;56.51;100510.63;5039468;28;20048;-70
2022/04/25 07:38:05;;;;;;;0.28;0.25;;;;;;;14.29;56.66;100512.16;5044523;28;20036;-70
2022/04/25 07:40:31;;;;;;;0.60;0.60;;;;;;;14.39;58.15;100511.41;5035525;28;20537;-70
2022/04/25 07:42:57;;;;;;;0.40;0.40;;;;;;;14.52;57.14;100512.59;5031408;28;20034;-70
2022/04/25 07:45:23;;;;;;;0.85;0.40;;;;;;;14.65;57.50;100505.66;5034959;28;20098;-69
2022/04/25 07:47:48;;;;;;;3.33;0.40;;;;;;;15.02;56.20;100505.28;5033390;28;20029;-70
2022/04/25 07:50:16;;;;;;;0.35;0.30;;;;;;;15.03;56.09;100515.75;5043139;28;20073;-69
2022/04/25 07:52:41;;;;;;;2.90;0.55;;;;;;;15.15;54.93;100515.38;5023173;28;20494;-69
2022/04/25 07:55:08;;;;;;;0.95;0.40;;;;;;;14.89;55.30;100517.66;5014580;28;20036;-68
2022/04/25 07:57:35;;;;;;;1.75;0.30;;;;;;;14.97;54.81;100516.50;5046861;28;20033;-68
2022/04/25 08:00:04;;;;;;;0.17;0.15;;;;;;;15.10;55.35;100523.09;5046932;28;20043;-72
2022/04/25 08:02:32;;;;;;;4.80;0.38;;;;;;;15.13;54.49;100525.03;5039943;28;20036;-71
2022/04/25 08:04:58;;;;;;;0.20;0.20;;;;;;;15.14;55.73;100527.38;5028021;28;20426;-68
2022/04/25 08:07:23;;;;;;;0.85;0.40;;;;;;;15.35;55.55;100530.06;5044104;28;20075;-69
2022/04/25 08:09:49;;;;;;;0.20;0.20;;;;;;;15.71;54.76;100530.81;5041327;28;20057;-69
2022/04/25 08:18:06;;;;;;;6.10;0.50;;;;;;;16.10;54.21;100526.00;5037996;28;20163;-70
2022/04/25 08:20:34;;;;;;;0.20;0.20;;;;;;;16.22;53.95;100527.50;5048337;28;20033;-69
2022/04/25 08:23:01;;;;;;;1.27;0.38;;;;;;;16.25;54.28;100527.50;5045697;28;20389;-69
2022/04/25 08:25:32;;;;;;;1.13;0.47;;;;;;;16.41;54.12;100534.41;5038578;28;20033;-71
2022/04/25 08:27:59;;;;;;;0.43;0.30;;;;;;;16.55;53.20;100528.94;5044854;28;20029;-70
2022/04/25 08:30:26;;;;;;;0.15;0.13;;;;;;;16.58;53.07;100530.84;5040673;28;20032;-68
2022/04/25 08:32:52;;;;;;;0.40;0.20;;;;;;;16.61;53.41;100530.03;5041448;28;20021;-70
2022/04/25 08:35:18;;;;;;;1.67;0.30;;;;;;;16.66;52.58;100537.78;5040675;28;20033;-69
2022/04/25 08:37:43;;;;;;;0.65;0.47;;;;;;;16.73;51.81;100543.16;5040258;28;20017;-71
2022/04/25 08:40:10;;;;;;;0.98;0.60;;;;;;;16.78;50.96;100545.47;5045756;28;20025;-69
2022/04/25 08:42:35;;;;;;;0.68;0.60;;;;;;;16.85;52.27;100539.97;5048952;28;20393;-69
2022/04/25 08:45:06;;;;;;;1.92;0.43;;;;;;;16.83;52.98;100545.03;5047228;28;20029;-69
2022/04/25 08:47:39;;;;;;;0.70;0.38;;;;;;;17.00;53.17;100549.59;5043091;28;20039;-70
2022/04/25 08:50:05;;;;;;;0.47;0.20;;;;;;;17.25;53.32;100550.16;5045831;28;20374;-69
2022/04/25 08:52:32;;;;;;;1.55;0.50;;;;;;;17.34;50.62;100547.75;5050758;28;20551;-69
2022/04/25 08:55:00;;;;;;;0.40;0.30;;;;;;;17.39;52.08;100555.47;5049138;28;20022;-70
2022/04/25 08:57:28;;;;;;;1.13;0.40;;;;;;;17.45;50.84;100551.16;5046387;28;20025;-70
2022/04/25 08:59:57;;;;;;;0.60;0.35;;;;;;;17.58;50.20;100552.22;5048265;28;20044;-69
2022/04/25 09:02:23;;;;;;;0.95;0.50;;;;;;;17.62;51.89;100552.97;5064848;28;20131;-69
2022/04/25 09:04:51;;;;;;;0.50;0.43;;;;;;;17.77;50.82;100557.06;5056215;28;20104;-70
2022/04/25 09:07:17;;;;;;;1.80;0.60;;;;;;;17.87;51.86;100555.41;5052290;28;20037;-70
2022/04/25 09:09:43;;;;;;;0.63;0.40;;;;;;;17.88;51.41;100557.75;5053492;28;20041;-70
2022/04/25 09:12:12;;;;;;;0.73;0.30;;;;;;;18.07;50.55;100555.56;5041437;28;20037;-70
2022/04/25 09:14:40;;;;;;;1.00;0.60;;;;;;;18.33;50.08;100557.59;5036381;28;20036;-70
2022/04/25 09:17:06;;;;;;;1.50;0.50;;;;;;;18.16;49.70;100553.91;5052701;28;20056;-70
2022/04/25 09:19:33;;;;;;;0.20;0.20;;;;;;;18.21;51.21;100560.88;5050524;28;20035;-69
2022/04/25 09:21:59;;;;;;;0.43;0.32;;;;;;;18.47;50.44;100552.75;5045262;28;20044;-69
2022/04/25 09:24:45;;;;;;;0.73;0.43;;;;;;;18.67;48.20;100567.28;5036280;28;20032;-70
2022/04/25 09:27:11;;;;;;;0.55;0.40;;;;;;;18.72;49.37;100558.63;5050220;28;20076;-70
2022/04/25 09:29:38;;;;;;;0.70;0.45;;;;;;;18.90;49.41;100569.28;5051267;28;20033;-70
2022/04/25 09:32:06;;;;;;;1.02;0.35;;;;;;;18.75;49.94;100563.28;5051979;28;20576;-70
2022/04/25 09:37:18;;;;;;;0.77;0.45;;;;;;;18.67;47.65;100572.75;5045041;28;20500;-70
2022/04/25 09:39:44;;;;;;;2.65;0.50;;;;;;;18.51;48.01;100566.34;5048748;28;20029;-69
2022/04/25 09:42:10;;;;;;;1.08;0.47;;;;;;;18.72;48.02;100563.31;5050960;28;20033;-70
2022/04/25 09:44:56;;;;;;;0.30;0.20;;;;;;;18.86;47.07;100571.28;5046054;28;20025;-70
2022/04/25 09:47:27;;;;;;;1.02;0.55;;;;;;;19.15;48.75;100572.41;5032058;28;20028;-70
2022/04/25 09:50:06;;;;;;;0.95;0.40;;;;;;;19.19;48.37;100573.13;5052076;28;20033;-70
2022/04/25 09:52:33;;;;;;;0.98;0.40;;;;;;;19.06;48.65;100577.63;5046703;28;20032;-70
2022/04/25 09:55:16;;;;;;;1.52;0.35;;;;;;;19.42;48.49;100578.63;5026137;28;20047;-70
2022/04/25 09:57:44;;;;;;;0.80;0.60;;;;;;;19.53;48.20;100572.97;5045892;28;20048;-70
2022/04/25 10:00:10;;;;;;;1.73;0.60;;;;;;;19.53;48.06;100575.72;5050285;28;20032;-71
2022/04/25 10:02:40;;;;;;;0.40;0.40;;;;;;;19.63;47.31;100574.72;5037711;28;20053;-70
2022/04/25 10:05:14;;;;;;;0.57;0.28;;;;;;;19.78;46.80;100574.06;5027347;28;20525;-70
2022/04/25 10:07:43;;;;;;;0.98;0.40;;;;;;;19.85;46.11;100573.16;5057503;23;20043;-71
2022/04/25 10:10:10;;;;;;;0.32;0.30;;;;;;;19.94;46.77;100575.34;5092633;28;20066;-72
2022/04/25 10:12:36;;;;;;;0.30;0.22;;;;;;;19.89;47.29;100589.50;5090817;28;20499;-72
2022/04/25 10:15:03;;;;;;;2.58;0.60;;;;;;;19.93;46.62;100588.25;5110190;28;20028;-72
2022/04/25 10:17:31;;;;;;;0.40;0.28;;;;;;;20.12;46.12;100584.75;5076388;28;20024;-72
2022/04/25 10:20:00;;;;;;;0.85;0.30;;;;;;;20.04;46.51;100580.59;5107497;28;20071;-72
2022/04/25 10:22:26;;;;;;;0.57;0.32;;;;;;;20.16;45.97;100584.66;5099884;28;20119;-72
2022/04/25 10:24:51;;;;;;;0.40;0.30;;;;;;;20.19;46.00;100592.06;5091874;28;20115;-72
2022/04/25 10:27:24;;;;;;;0.40;0.40;;;;;;;20.28;45.89;100592.28;5093645;28;20603;-72
2022/04/25 10:29:52;;;;;;;0.95;0.40;;;;;;;20.29;45.32;100591.84;5109477;28;20565;-72
2022/04/25 10:32:21;;;;;;;0.40;0.30;;;;;;;20.21;45.75;100589.69;5105584;28;20074;-72
2022/04/25 10:35:04;;;;;;;0.77;0.40;;;;;;;20.27;46.35;100583.28;5094506;28;20093;-72
2022/04/25 10:37:29;;;;;;;0.30;0.30;;;;;;;20.60;44.80;100584.16;5090186;28;20115;-72
2022/04/25 10:39:56;;;;;;;0.93;0.47;;;;;;;20.83;44.52;100584.03;5092800;28;20443;-72
2022/04/25 10:45:06;;;;;;;1.25;0.50;;;;;;;20.76;44.07;100583.41;5094985;28;20024;-71
2022/04/25 10:47:31;;;;;;;0.30;0.30;;;;;;;20.47;44.78;100580.53;5071107;28;20020;-71
2022/04/25 10:49:57;;;;;;;5.95;0.50;;;;;;;20.63;45.41;100583.31;5090151;28;20035;-72
2022/04/25 10:52:56;;;;;;;1.33;0.50;;;;;;;20.78;43.50;100590.00;5090503;28;20550;-73
2022/04/25 10:55:36;;;;;;;0.73;0.30;;;;;;;20.82;42.81;100585.22;5092712;28;20067;-70
2022/04/25 10:58:02;;;;;;;1.17;0.30;;;;;;;20.71;42.88;100578.47;5069689;28;20123;-70
2022/04/25 11:00:36;;;;;;;0.50;0.30;;;;;;;20.71;42.23;100590.19;5090710;28;20135;-72
2022/04/25 11:03:07;;;;;;;0.47;0.30;;;;;;;20.78;41.22;100590.00;5073576;28;20092;-71
2022/04/25 11:05:33;;;;;;;0.50;0.47;;;;;;;20.90;41.26;100592.09;5099016;28;20806;-71
2022/04/25 11:08:20;;;;;;;0.63;0.57;;;;;;;20.89;41.83;100587.78;5088095;28;20633;-72
2022/04/25 11:10:57;;;;;;;2.38;0.50;;;;;;;20.88;42.89;100593.72;5092142;28;20032;-72
2022/04/25 11:13:26;;;;;;;0.32;0.32;;;;;;;21.18;43.15;100591.44;5077849;28;20027;-71
2022/04/25 11:15:56;;;;;;;0.68;0.20;;;;;;;21.13;44.04;100594.72;5104552;28;20060;-71
2022/04/25 11:18:35;;;;;;;0.88;0.30;;;;;;;21.21;44.03;100604.31;5092948;28;20071;-71
2022/04/25 11:21:07;;;;;;;1.67;0.55;;;;;;;21.46;42.93;100604.47;5074142;28;20100;-72
2022/04/25 11:23:44;;;;;;;0.50;0.30;;;;;;;21.35;42.01;100603.94;5102493;27;20039;-73
2022/04/25 11:26:22;;;;;;;0.75;0.50;;;;;;;20.91;42.15;100592.84;5088111;28;20032;-73
2022/04/25 11:28:58;;;;;;;0.70;0.30;;;;;;;21.49;41.48;100597.34;5103144;28;20711;-72
2022/04/25 11:31:30;;;;;;;0.45;0.30;;;;;;;21.34;41.72;100594.19;5057465;28;20039;-73
2022/04/25 11:34:00;;;;;;;2.72;0.28;;;;;;;21.74;41.17;100605.69;5097475;28;20035;-73
2022/04/25 11:36:27;;;;;;;3.33;0.35;;;;;;;21.64;40.91;100611.47;5092959;28;20400;-73
2022/04/25 11:41:40;;;;;;;0.40;0.28;;;;;;;21.66;41.15;100617.28;5089649;28;20035;-72
2022/04/25 11:44:06;;;;;;;1.15;0.70;;;;;;;21.71;40.63;100606.56;5093378;28;20437;-72
2022/04/25 11:46:33;;;;;;;0.50;0.40;;;;;;;21.67;40.19;100616.06;5090431;28;20488;-73
2022/04/25 11:48:59;;;;;;;1.05;0.50;;;;;;;21.60;42.15;100619.78;5087915;28;20028;-73
2022/04/25 11:51:30;;;;;;;1.35;0.70;;;;;;;21.59;42.15;100620.97;5093463;28;20080;-72
2022/04/25 11:53:57;;;;;;;;;;;;;;;21.51;41.05;100625.88;5092900;28;20042;-71
2022/04/25 11:56:23;;;;;;;0.40;0.30;;;;;;;21.46;41.04;100617.38;5092776;28;20355;-72
2022/04/25 11:58:49;;;;;;;0.88;0.40;;;;;;;21.22;42.03;100616.00;5095640;28;20067;-72